EIN34G EIDW-LSZH
Flight info
| Callsign | EIN34G |
|---|---|
| Flight time | N/A |
| Altitude | 35000 |
| Route | ENDEQ3J ENDEQ Q36 EPOXI L15 FINMA DCT CHT DCT ITVIP DCT KONAN UL607 KOK DCT CIV DCT SUTAL DCT GTQ DCT BAMEV DCT BLM |
| Aircraft | A320/M-SDE3FGHIRWY/LB1 |
Departure
| Time | 2026-05-06 12:57 |
|---|---|
| Airport | Dublin Airport (EIDW) |
Arrival
| Time | N/A |
|---|---|
| Airport | Zürich Airport (LSZH) |
| Time | Latitude | Longitude | Altitude | Speed | Heading |
|---|---|---|---|---|---|
| 2026-05-06 12:20 | 53.42376 | -6.24165 | 216 ft | 0 kts | 315° |
| 2026-05-06 12:42 | 53.42374 | -6.24161 | 211 ft | 3 kts | 315° |
| 2026-05-06 12:42 | 53.42365 | -6.24145 | 219 ft | 0 kts | 311° |
| 2026-05-06 12:43 | 53.42354 | -6.24125 | 213 ft | 2 kts | 311° |
| 2026-05-06 12:43 | 53.42343 | -6.24103 | 211 ft | 2 kts | 311° |
| 2026-05-06 12:44 | 53.42332 | -6.24082 | 211 ft | 2 kts | 311° |
| 2026-05-06 12:44 | 53.42321 | -6.24060 | 211 ft | 2 kts | 311° |
| 2026-05-06 12:44 | 53.42319 | -6.24058 | 211 ft | 0 kts | 311° |
| 2026-05-06 12:45 | 53.42296 | -6.24098 | 213 ft | 8 kts | 224° |
| 2026-05-06 12:46 | 53.42228 | -6.24151 | 211 ft | 14 kts | 212° |
| 2026-05-06 12:46 | 53.42160 | -6.24277 | 211 ft | 14 kts | 252° |
| 2026-05-06 12:46 | 53.42162 | -6.24435 | 216 ft | 13 kts | 274° |
| 2026-05-06 12:46 | 53.42169 | -6.24578 | 211 ft | 12 kts | 274° |
| 2026-05-06 12:47 | 53.42178 | -6.24705 | 219 ft | 10 kts | 277° |
| 2026-05-06 12:47 | 53.42186 | -6.24817 | 211 ft | 9 kts | 277° |
| 2026-05-06 12:47 | 53.42192 | -6.24915 | 211 ft | 8 kts | 275° |
| 2026-05-06 12:47 | 53.42196 | -6.24997 | 211 ft | 6 kts | 275° |
| 2026-05-06 12:48 | 53.42200 | -6.25062 | 211 ft | 6 kts | 275° |
| 2026-05-06 12:48 | 53.42206 | -6.25180 | 210 ft | 15 kts | 275° |
| 2026-05-06 12:48 | 53.42217 | -6.25403 | 214 ft | 20 kts | 275° |
| 2026-05-06 12:48 | 53.42229 | -6.25629 | 211 ft | 19 kts | 275° |
| 2026-05-06 12:49 | 53.42241 | -6.25834 | 211 ft | 17 kts | 275° |
| 2026-05-06 12:49 | 53.42251 | -6.26023 | 215 ft | 18 kts | 275° |
| 2026-05-06 12:49 | 53.42265 | -6.26262 | 215 ft | 24 kts | 275° |
| 2026-05-06 12:49 | 53.42281 | -6.26554 | 215 ft | 23 kts | 275° |
| 2026-05-06 12:50 | 53.42296 | -6.26827 | 211 ft | 24 kts | 275° |
| 2026-05-06 12:50 | 53.42310 | -6.27098 | 218 ft | 24 kts | 275° |
| 2026-05-06 12:50 | 53.42325 | -6.27371 | 213 ft | 23 kts | 275° |
| 2026-05-06 12:50 | 53.42339 | -6.27642 | 211 ft | 23 kts | 275° |
| 2026-05-06 12:51 | 53.42354 | -6.27909 | 213 ft | 23 kts | 275° |
| 2026-05-06 12:51 | 53.42368 | -6.28170 | 213 ft | 22 kts | 275° |
| 2026-05-06 12:51 | 53.42383 | -6.28421 | 211 ft | 21 kts | 276° |
| 2026-05-06 12:51 | 53.42396 | -6.28653 | 211 ft | 19 kts | 275° |
| 2026-05-06 12:52 | 53.42406 | -6.28837 | 211 ft | 0 kts | 276° |
| 2026-05-06 12:53 | 53.42410 | -6.28900 | 218 ft | 12 kts | 276° |
| 2026-05-06 12:53 | 53.42381 | -6.29058 | 211 ft | 14 kts | 217° |
| 2026-05-06 12:53 | 53.42352 | -6.29076 | 210 ft | 0 kts | 186° |
| 2026-05-06 12:54 | 53.42351 | -6.29076 | 215 ft | 2 kts | 186° |
| 2026-05-06 12:54 | 53.42294 | -6.29077 | 210 ft | 13 kts | 176° |
| 2026-05-06 12:54 | 53.42241 | -6.28994 | 209 ft | 8 kts | 95° |
| 2026-05-06 12:54 | 53.42240 | -6.28961 | 213 ft | 0 kts | 95° |
| 2026-05-06 12:56 | 53.42239 | -6.28942 | 209 ft | 10 kts | 95° |
| 2026-05-06 12:56 | 53.42209 | -6.28376 | 213 ft | 85 kts | 95° |
| 2026-05-06 12:56 | 53.42139 | -6.27041 | 213 ft | 143 kts | 95° |
| 2026-05-06 12:57 | 53.42055 | -6.25273 | 650 ft | 153 kts | 94° |
| 2026-05-06 12:57 | 53.41969 | -6.23498 | 1344 ft | 152 kts | 94° |
| 2026-05-06 12:57 | 53.41866 | -6.21656 | 1821 ft | 168 kts | 95° |
| 2026-05-06 12:57 | 53.41750 | -6.19604 | 2151 ft | 191 kts | 95° |
| 2026-05-06 12:58 | 53.41614 | -6.17256 | 2472 ft | 216 kts | 96° |
| 2026-05-06 12:58 | 53.41458 | -6.14610 | 2891 ft | 240 kts | 96° |
| 2026-05-06 12:58 | 53.41290 | -6.11717 | 3546 ft | 255 kts | 96° |
| 2026-05-06 12:58 | 53.41118 | -6.08721 | 4446 ft | 261 kts | 97° |
| 2026-05-06 12:59 | 53.40947 | -6.05672 | 5338 ft | 265 kts | 96° |
| 2026-05-06 12:59 | 53.40930 | -6.02553 | 6207 ft | 271 kts | 88° |
| 2026-05-06 12:59 | 53.41101 | -5.99373 | 7022 ft | 277 kts | 84° |
| 2026-05-06 12:59 | 53.41347 | -5.96185 | 7813 ft | 282 kts | 82° |
| 2026-05-06 13:00 | 53.41618 | -5.92899 | 8625 ft | 288 kts | 82° |
| 2026-05-06 13:00 | 53.41886 | -5.89550 | 8955 ft | 292 kts | 82° |
| 2026-05-06 13:00 | 53.42141 | -5.86166 | 9031 ft | 293 kts | 83° |
| 2026-05-06 13:00 | 53.42383 | -5.82779 | 9035 ft | 292 kts | 83° |
| 2026-05-06 13:01 | 53.42615 | -5.79390 | 9072 ft | 294 kts | 83° |
| 2026-05-06 13:01 | 53.42847 | -5.75956 | 9853 ft | 297 kts | 83° |
| 2026-05-06 13:01 | 53.43083 | -5.72453 | 10399 ft | 313 kts | 83° |
| 2026-05-06 13:01 | 53.43338 | -5.68695 | 10648 ft | 336 kts | 83° |
| 2026-05-06 13:02 | 53.43606 | -5.64719 | 11148 ft | 348 kts | 83° |
| 2026-05-06 13:02 | 53.43877 | -5.60655 | 11841 ft | 353 kts | 83° |
| 2026-05-06 13:02 | 53.44144 | -5.56587 | 12565 ft | 358 kts | 83° |
| 2026-05-06 13:02 | 53.44418 | -5.52411 | 13289 ft | 362 kts | 83° |
| 2026-05-06 13:03 | 53.44544 | -5.48160 | 13916 ft | 370 kts | 91° |
| 2026-05-06 13:03 | 53.44445 | -5.43784 | 14387 ft | 379 kts | 92° |
| 2026-05-06 13:03 | 53.44332 | -5.39346 | 14997 ft | 383 kts | 92° |
| 2026-05-06 13:03 | 53.44213 | -5.34861 | 15629 ft | 386 kts | 92° |
| 2026-05-06 13:04 | 53.44092 | -5.30343 | 16259 ft | 390 kts | 92° |
| 2026-05-06 13:04 | 53.43970 | -5.25784 | 16879 ft | 393 kts | 92° |
| 2026-05-06 13:04 | 53.43850 | -5.21243 | 17496 ft | 397 kts | 92° |
| 2026-05-06 13:04 | 53.43730 | -5.16607 | 18125 ft | 400 kts | 92° |
| 2026-05-06 13:05 | 53.43601 | -5.11927 | 18674 ft | 404 kts | 92° |
| 2026-05-06 13:05 | 53.43460 | -5.07207 | 19206 ft | 407 kts | 93° |
| 2026-05-06 13:05 | 53.43308 | -5.02446 | 19742 ft | 410 kts | 93° |
| 2026-05-06 13:05 | 53.43149 | -4.97654 | 20279 ft | 414 kts | 93° |
| 2026-05-06 13:06 | 53.42982 | -4.92816 | 20809 ft | 417 kts | 93° |
| 2026-05-06 13:06 | 53.42814 | -4.87936 | 21326 ft | 420 kts | 93° |
| 2026-05-06 13:06 | 53.42651 | -4.83029 | 21828 ft | 424 kts | 93° |
| 2026-05-06 13:06 | 53.42490 | -4.78145 | 22314 ft | 427 kts | 93° |
| 2026-05-06 13:07 | 53.42324 | -4.73157 | 22792 ft | 430 kts | 93° |
| 2026-05-06 13:07 | 53.42157 | -4.68136 | 23247 ft | 433 kts | 93° |
| 2026-05-06 13:07 | 53.41988 | -4.63076 | 23683 ft | 436 kts | 93° |
| 2026-05-06 13:07 | 53.41815 | -4.57979 | 24062 ft | 439 kts | 93° |
| 2026-05-06 13:08 | 53.41637 | -4.52857 | 24440 ft | 441 kts | 93° |
| 2026-05-06 13:08 | 53.41451 | -4.47707 | 24814 ft | 444 kts | 93° |
| 2026-05-06 13:08 | 53.41261 | -4.42533 | 25186 ft | 446 kts | 93° |
| 2026-05-06 13:08 | 53.41070 | -4.37331 | 25550 ft | 448 kts | 93° |
| 2026-05-06 13:09 | 53.40882 | -4.32178 | 25900 ft | 450 kts | 93° |
| 2026-05-06 13:09 | 53.40690 | -4.26933 | 26255 ft | 452 kts | 93° |
| 2026-05-06 13:09 | 53.40490 | -4.21656 | 26598 ft | 454 kts | 93° |
| 2026-05-06 13:09 | 53.40282 | -4.16359 | 26936 ft | 457 kts | 94° |
| 2026-05-06 13:10 | 53.40071 | -4.11040 | 27268 ft | 459 kts | 94° |
| 2026-05-06 13:10 | 53.39857 | -4.05695 | 27572 ft | 461 kts | 94° |
| 2026-05-06 13:10 | 53.39642 | -4.00320 | 27878 ft | 463 kts | 94° |
| 2026-05-06 13:10 | 53.39426 | -3.94924 | 28180 ft | 466 kts | 94° |
| 2026-05-06 13:11 | 53.39211 | -3.89575 | 28463 ft | 468 kts | 94° |
| 2026-05-06 13:11 | 53.38991 | -3.84126 | 28745 ft | 469 kts | 94° |
| 2026-05-06 13:11 | 53.38765 | -3.78664 | 29014 ft | 471 kts | 94° |
| 2026-05-06 13:11 | 53.38533 | -3.73177 | 29277 ft | 473 kts | 94° |
| 2026-05-06 13:12 | 53.38218 | -3.67685 | 29513 ft | 475 kts | 99° |
| 2026-05-06 13:12 | 53.37471 | -3.62300 | 29792 ft | 475 kts | 108° |
| 2026-05-06 13:12 | 53.36284 | -3.57155 | 30135 ft | 473 kts | 115° |
| 2026-05-06 13:12 | 53.34979 | -3.52098 | 30428 ft | 473 kts | 115° |
| 2026-05-06 13:13 | 53.33571 | -3.47219 | 30718 ft | 471 kts | 121° |
| 2026-05-06 13:13 | 53.31766 | -3.42672 | 31006 ft | 468 kts | 130° |
| 2026-05-06 13:13 | 53.29658 | -3.38546 | 31297 ft | 467 kts | 133° |
| 2026-05-06 13:13 | 53.27511 | -3.34479 | 31591 ft | 466 kts | 133° |
| 2026-05-06 13:14 | 53.25364 | -3.30422 | 31881 ft | 466 kts | 133° |
| 2026-05-06 13:14 | 53.23217 | -3.26373 | 32189 ft | 465 kts | 133° |
| 2026-05-06 13:14 | 53.21073 | -3.22331 | 32480 ft | 465 kts | 133° |
| 2026-05-06 13:14 | 53.18928 | -3.18291 | 32770 ft | 464 kts | 134° |
| 2026-05-06 13:15 | 53.16789 | -3.14270 | 33074 ft | 464 kts | 134° |
| 2026-05-06 13:15 | 53.14676 | -3.10310 | 33369 ft | 463 kts | 134° |
| 2026-05-06 13:15 | 53.12536 | -3.06300 | 33668 ft | 463 kts | 134° |
| 2026-05-06 13:15 | 53.10400 | -3.02302 | 33989 ft | 462 kts | 134° |
| 2026-05-06 13:16 | 53.08266 | -2.98314 | 34261 ft | 461 kts | 134° |
| 2026-05-06 13:16 | 53.06135 | -2.94338 | 34506 ft | 461 kts | 134° |
| 2026-05-06 13:16 | 53.04003 | -2.90365 | 34731 ft | 461 kts | 134° |
| 2026-05-06 13:16 | 53.01867 | -2.86388 | 34944 ft | 461 kts | 134° |
| 2026-05-06 13:17 | 52.99727 | -2.82409 | 35037 ft | 462 kts | 134° |
| 2026-05-06 13:17 | 52.95459 | -2.74508 | 35033 ft | 463 kts | 134° |
| 2026-05-06 13:18 | 52.91153 | -2.66567 | 35028 ft | 463 kts | 134° |
| 2026-05-06 13:18 | 52.86846 | -2.58634 | 35029 ft | 463 kts | 134° |
| 2026-05-06 13:19 | 52.82529 | -2.50720 | 35033 ft | 463 kts | 134° |
| 2026-05-06 13:19 | 52.78242 | -2.42890 | 35033 ft | 462 kts | 135° |
| 2026-05-06 13:20 | 52.73934 | -2.35037 | 35020 ft | 462 kts | 134° |
| 2026-05-06 13:20 | 52.69620 | -2.27191 | 35054 ft | 462 kts | 135° |
| 2026-05-06 13:21 | 52.65295 | -2.19363 | 35059 ft | 462 kts | 135° |
| 2026-05-06 13:21 | 52.60969 | -2.11546 | 35058 ft | 462 kts | 135° |
| 2026-05-06 13:22 | 52.56666 | -2.03803 | 35052 ft | 462 kts | 135° |
| 2026-05-06 13:22 | 52.52332 | -1.96028 | 35042 ft | 461 kts | 135° |
| 2026-05-06 13:23 | 52.47997 | -1.88278 | 35035 ft | 460 kts | 135° |
| 2026-05-06 13:23 | 52.43662 | -1.80552 | 35036 ft | 460 kts | 135° |
| 2026-05-06 13:24 | 52.39351 | -1.72901 | 35040 ft | 460 kts | 135° |
| 2026-05-06 13:24 | 52.35009 | -1.65214 | 35036 ft | 460 kts | 135° |
| 2026-05-06 13:25 | 52.30621 | -1.57628 | 35031 ft | 459 kts | 136° |
| 2026-05-06 13:25 | 52.26192 | -1.50134 | 35021 ft | 458 kts | 136° |
| 2026-05-06 13:26 | 52.21766 | -1.42655 | 35024 ft | 458 kts | 136° |
| 2026-05-06 13:26 | 52.17383 | -1.35228 | 35029 ft | 458 kts | 136° |
| 2026-05-06 13:27 | 52.12970 | -1.27759 | 35035 ft | 457 kts | 136° |
| 2026-05-06 13:27 | 52.08555 | -1.20310 | 35028 ft | 457 kts | 136° |
| 2026-05-06 13:28 | 52.04134 | -1.12879 | 35019 ft | 457 kts | 136° |
| 2026-05-06 13:28 | 51.99734 | -1.05527 | 34996 ft | 456 kts | 136° |
| 2026-05-06 13:29 | 51.95122 | -0.98475 | 34995 ft | 455 kts | 140° |
| 2026-05-06 13:29 | 51.90337 | -0.91760 | 34991 ft | 455 kts | 141° |
| 2026-05-06 13:30 | 51.85545 | -0.85050 | 34994 ft | 455 kts | 141° |
| 2026-05-06 13:30 | 51.80835 | -0.78307 | 34996 ft | 456 kts | 140° |
| 2026-05-06 13:31 | 51.76103 | -0.71495 | 34988 ft | 456 kts | 140° |
| 2026-05-06 13:31 | 51.71362 | -0.64702 | 34989 ft | 456 kts | 140° |
| 2026-05-06 13:32 | 51.66608 | -0.57948 | 34991 ft | 456 kts | 140° |
| 2026-05-06 13:32 | 51.62534 | -0.50233 | 34992 ft | 459 kts | 122° |
| 2026-05-06 13:33 | 51.60033 | -0.40804 | 34986 ft | 460 kts | 109° |
| 2026-05-06 13:33 | 51.58017 | -0.31029 | 34985 ft | 460 kts | 109° |
| 2026-05-06 13:34 | 51.55983 | -0.21273 | 34983 ft | 460 kts | 109° |
| 2026-05-06 13:34 | 51.53960 | -0.11595 | 34982 ft | 460 kts | 109° |
| 2026-05-06 13:35 | 51.51910 | -0.01852 | 35000 ft | 460 kts | 109° |
| 2026-05-06 13:35 | 51.49858 | 0.07877 | 34988 ft | 460 kts | 110° |
| 2026-05-06 13:36 | 51.47800 | 0.17590 | 34990 ft | 460 kts | 110° |
| 2026-05-06 13:36 | 51.45730 | 0.27297 | 34983 ft | 460 kts | 110° |
| 2026-05-06 13:37 | 51.43663 | 0.36920 | 34978 ft | 460 kts | 110° |
| 2026-05-06 13:37 | 51.41574 | 0.46599 | 34959 ft | 460 kts | 109° |
| 2026-05-06 13:38 | 51.39484 | 0.56268 | 34962 ft | 460 kts | 109° |
| 2026-05-06 13:38 | 51.37391 | 0.65930 | 34966 ft | 459 kts | 110° |
| 2026-05-06 13:39 | 51.35300 | 0.75515 | 34963 ft | 459 kts | 110° |
| 2026-05-06 13:39 | 51.33184 | 0.85147 | 34960 ft | 459 kts | 110° |
| 2026-05-06 13:40 | 51.31066 | 0.94766 | 34957 ft | 459 kts | 110° |
| 2026-05-06 13:40 | 51.28941 | 1.04369 | 34956 ft | 458 kts | 109° |
| 2026-05-06 13:41 | 51.27288 | 1.14214 | 34959 ft | 459 kts | 105° |
| 2026-05-06 13:41 | 51.25702 | 1.24007 | 34957 ft | 459 kts | 105° |
| 2026-05-06 13:42 | 51.24098 | 1.33860 | 34958 ft | 458 kts | 105° |
| 2026-05-06 13:42 | 51.22485 | 1.43703 | 34954 ft | 459 kts | 105° |
| 2026-05-06 13:43 | 51.20865 | 1.53540 | 34955 ft | 458 kts | 105° |
| 2026-05-06 13:43 | 51.19245 | 1.63292 | 34960 ft | 458 kts | 106° |
| 2026-05-06 13:44 | 51.17610 | 1.73108 | 34953 ft | 458 kts | 106° |
| 2026-05-06 13:44 | 51.15970 | 1.82907 | 34954 ft | 458 kts | 106° |
| 2026-05-06 13:45 | 51.14326 | 1.92637 | 34973 ft | 457 kts | 106° |
| 2026-05-06 13:45 | 51.12686 | 2.07567 | 34977 ft | 458 kts | 96° |
| 2026-05-06 13:46 | 51.12157 | 2.17675 | 34970 ft | 458 kts | 95° |
| 2026-05-06 13:46 | 51.11604 | 2.27759 | 34950 ft | 458 kts | 95° |
| 2026-05-06 13:47 | 51.11043 | 2.37773 | 34948 ft | 457 kts | 97° |
| 2026-05-06 13:47 | 51.10474 | 2.47841 | 34946 ft | 457 kts | 97° |
| 2026-05-06 13:48 | 51.09879 | 2.57894 | 34943 ft | 456 kts | 98° |
| 2026-05-06 13:48 | 51.09236 | 2.62813 | 34943 ft | 454 kts | 109° |
| 2026-05-06 13:48 | 51.08124 | 2.67493 | 34935 ft | 451 kts | 117° |
| 2026-05-06 13:49 | 51.04851 | 2.75875 | 34931 ft | 449 kts | 125° |
| 2026-05-06 13:49 | 51.01307 | 2.84046 | 34927 ft | 449 kts | 126° |
| 2026-05-06 13:50 | 50.97765 | 2.92202 | 34926 ft | 449 kts | 126° |
| 2026-05-06 13:50 | 50.94215 | 3.00340 | 34923 ft | 449 kts | 126° |
| 2026-05-06 13:51 | 50.90659 | 3.08471 | 34913 ft | 449 kts | 127° |
| 2026-05-06 13:51 | 50.87119 | 3.16525 | 34911 ft | 449 kts | 127° |
| 2026-05-06 13:52 | 50.83541 | 3.24622 | 34904 ft | 449 kts | 126° |
| 2026-05-06 13:52 | 50.79969 | 3.32712 | 34903 ft | 449 kts | 126° |
| 2026-05-06 13:53 | 50.76394 | 3.40798 | 34903 ft | 448 kts | 126° |
| 2026-05-06 13:53 | 50.72843 | 3.48797 | 34904 ft | 448 kts | 126° |
| 2026-05-06 13:54 | 50.69260 | 3.56839 | 34898 ft | 448 kts | 126° |
| 2026-05-06 13:54 | 50.65670 | 3.64864 | 34897 ft | 448 kts | 127° |